Estación Meteorológica Peña el Pijo (Robertgarden) [ 01/30/23 14:38:13 CET ]

Fecha Hora Presion(HPa) Temp (°C) Humedad % Rocio (°C) Viento ( m/s) Direccion Lluvia 1Hora(mm) Lluvia 24H(mm) LLuvia Total(mm)
2012-Oct-12 01:01:12 1009.100 10.4 81 7.3         178.19
2012-Oct-12 02:01:12 1009.000 9.9 84 7.3         178.19
2012-Oct-12 03:01:42 1008.900 9.4 86 7.2         178.19
2012-Oct-12 04:03:13 1008.300 9.0 87 7.0         178.19
2012-Oct-12 05:01:13 1008.100 9.1 88 7.2         178.19
2012-Oct-12 06:01:16 1008.000 9.9 90 8.3         178.19
2012-Oct-12 07:01:17 1008.600 11.3 86 9.0         178.19
2012-Oct-12 08:01:13 1008.700 11.3 85 8.8         178.19
2012-Oct-12 09:01:14 1008.900 11.6 85 9.2         178.19
2012-Oct-12 10:01:16 1009.300 16.1 75 11.7         178.19
2012-Oct-12 11:01:13 1009.600 18.9 60 11.0         178.19
2012-Oct-12 12:01:12 1009.700 19.9 53 10.0         178.19
2012-Oct-12 13:01:13 1009.500 18.8 56 9.8         178.19
2012-Oct-12 14:01:14 1009.200 17.8 63 10.6 0.9 SW     178.19
2012-Oct-12 15:01:11 1008.600 16.9 70 11.4         178.19
2012-Oct-12 16:01:16 1008.100 20.3 56 11.2         178.19
2012-Oct-12 17:01:14 1008.300 18.4 56 9.4         178.19
2012-Oct-12 18:01:13 1008.700 15.5 69 9.9         178.19
2012-Oct-12 19:01:12 1008.800 14.9 70 9.5         178.19
2012-Oct-12 20:01:18 1009.100 14.6 72 9.6         178.19
2012-Oct-12 21:01:16 1009.100 13.6 73 8.8         178.19
2012-Oct-12 22:01:13 1009.700 12.4 76 8.3         178.19
2012-Oct-12 23:01:15 1009.800 12.2 80 8.9         178.19

Temperatura Máxima:20°    Temperatura Mínima:
Presión Máxima:1009.800 Hpa    Presión Mínima:1008.000 Hpa


Volver